Time;durP1;ratioP1;P1;durP2;ratioP2;P2;SDS_P1;SDS_P2;PMS_P1;PMS_P2;Temp;Humidity;BMP_temperature;BMP_pressure;BME280_temperature;BME280_humidity;BME280_pressure;Samples;Min_cycle;Max_cycle;Signal;HPM_P1;HPM_P2
2023/01/16 00:02:11;;;;;;;30.67;16.17;;;;;;;8.27;59.64;99102.19;4339995;32;20420;-91
2023/01/16 00:04:37;;;;;;;35.17;18.75;;;;;;;8.24;59.64;99091.91;4352341;32;20108;-91
2023/01/16 00:07:02;;;;;;;29.37;15.80;;;;;;;8.29;59.63;99096.97;4317776;32;20123;-92
2023/01/16 00:09:27;;;;;;;35.22;18.27;;;;;;;8.52;59.66;99096.25;4340037;32;20164;-91
2023/01/16 00:11:53;;;;;;;29.85;15.55;;;;;;;8.44;59.64;99098.22;4339623;32;20090;-91
2023/01/16 00:14:18;;;;;;;33.70;16.60;;;;;;;8.36;59.64;99090.72;4339779;32;20149;-92
2023/01/16 00:16:44;;;;;;;26.90;15.10;;;;;;;8.28;59.63;99085.75;4329953;32;20158;-92
2023/01/16 00:19:09;;;;;;;28.83;14.80;;;;;;;8.42;59.64;99079.28;4339909;32;20435;-91
2023/01/16 00:21:34;;;;;;;26.85;14.82;;;;;;;8.42;59.64;99077.53;4339626;32;20125;-91
2023/01/16 00:24:00;;;;;;;27.73;14.75;;;;;;;8.46;59.65;99075.69;4339734;32;20154;-91
2023/01/16 00:26:26;;;;;;;25.23;14.50;;;;;;;8.45;59.65;99074.81;4341644;32;20434;-91
2023/01/16 00:28:52;;;;;;;25.12;13.18;;;;;;;8.55;59.65;99070.19;4330563;32;20768;-90
2023/01/16 00:31:17;;;;;;;25.12;13.05;;;;;;;8.42;59.64;99067.16;4330143;32;20105;-91
2023/01/16 00:33:43;;;;;;;25.60;13.23;;;;;;;8.45;59.65;99077.41;4352260;32;20099;-91
2023/01/16 00:36:10;;;;;;;27.02;13.10;;;;;;;8.42;59.64;99071.50;4352403;32;20107;-90
2023/01/16 00:38:35;;;;;;;26.40;13.30;;;;;;;8.48;59.65;99068.69;4339711;32;20106;-91
2023/01/16 00:41:01;;;;;;;23.02;12.80;;;;;;;8.43;59.64;99065.41;4330528;32;20113;-91
2023/01/16 00:43:26;;;;;;;29.02;13.38;;;;;;;8.48;59.65;99053.97;4337406;33;20116;-92
2023/01/16 00:45:52;;;;;;;23.50;13.15;;;;;;;8.47;59.65;99054.03;4326344;32;20166;-91
2023/01/16 00:48:17;;;;;;;26.65;12.82;;;;;;;8.43;59.64;99055.87;4333811;33;20123;-90
2023/01/16 00:50:43;;;;;;;28.52;13.65;;;;;;;8.76;59.67;99056.47;4326203;32;20480;-91
2023/01/16 00:53:08;;;;;;;26.35;12.73;;;;;;;8.71;59.66;99052.31;4339683;32;20159;-91
2023/01/16 00:55:35;;;;;;;23.48;12.65;;;;;;;8.71;59.66;99050.56;4339511;32;20435;-92
2023/01/16 00:58:00;;;;;;;25.65;12.98;;;;;;;8.66;59.66;99051.66;4339950;32;20137;-91
2023/01/16 01:00:26;;;;;;;26.30;14.05;;;;;;;8.57;59.65;99058.00;4337894;32;20099;-91
2023/01/16 01:02:51;;;;;;;24.40;12.13;;;;;;;8.69;59.66;99065.34;4339847;32;20091;-91
2023/01/16 01:05:17;;;;;;;23.83;12.13;;;;;;;8.59;59.66;99064.84;4339709;32;20494;-91
2023/01/16 01:07:42;;;;;;;23.95;12.27;;;;;;;8.43;59.64;99052.44;4363973;32;20107;-91
2023/01/16 01:10:08;;;;;;;24.25;12.48;;;;;;;8.50;59.65;99052.16;4351825;32;20086;-90
2023/01/16 01:12:34;;;;;;;24.12;13.20;;;;;;;8.40;59.65;99048.22;4339921;32;20109;-90
2023/01/16 01:14:59;;;;;;;24.37;12.60;;;;;;;8.55;59.65;99047.69;4339651;32;20206;-92
2023/01/16 01:17:25;;;;;;;25.62;12.43;;;;;;;8.63;59.66;99047.41;4348751;32;20103;-92
2023/01/16 01:19:50;;;;;;;26.35;12.88;;;;;;;8.34;59.64;99040.66;4337499;32;20126;-92
2023/01/16 01:22:16;;;;;;;29.12;14.68;;;;;;;8.38;59.65;99041.37;4351946;32;20130;-90
2023/01/16 01:24:41;;;;;;;28.50;13.80;;;;;;;8.40;59.65;99030.06;4341862;32;20512;-89
2023/01/16 01:27:07;;;;;;;28.50;14.93;;;;;;;8.14;59.63;99020.56;4350908;32;20126;-89
2023/01/16 01:29:32;;;;;;;27.37;13.95;;;;;;;8.23;59.64;99016.78;4351674;32;20444;-89
2023/01/16 01:31:58;;;;;;;24.50;13.57;;;;;;;8.21;59.63;99023.78;4351627;32;20117;-89
2023/01/16 01:34:23;;;;;;;27.33;13.68;;;;;;;8.15;59.64;99026.59;4364217;32;20110;-89
2023/01/16 01:36:49;;;;;;;28.48;14.90;;;;;;;8.12;59.62;99024.94;4361610;32;20129;-91
2023/01/16 01:39:14;;;;;;;30.45;14.95;;;;;;;8.09;59.63;99024.19;4359341;32;20111;-92
2023/01/16 01:41:40;;;;;;;26.42;14.35;;;;;;;8.14;59.64;99038.69;4363698;32;20174;-93
2023/01/16 01:44:43;;;;;;;30.30;15.50;;;;;;;8.25;59.63;99044.34;4363859;32;20449;-92
2023/01/16 01:47:09;;;;;;;28.08;14.55;;;;;;;8.36;59.64;99044.03;4376318;32;20472;-91
2023/01/16 01:49:34;;;;;;;27.02;15.00;;;;;;;8.27;59.64;99042.56;4363864;32;20126;-92
2023/01/16 01:52:03;;;;;;;28.35;13.93;;;;;;;8.44;59.65;99044.59;4356364;32;20157;-93
2023/01/16 01:57:28;;;;;;;33.55;14.30;;;;;;;8.42;59.64;99037.78;4363370;32;20747;-93
2023/01/16 02:00:19;;;;;;;28.02;13.98;;;;;;;8.35;59.64;99037.16;4351623;32;20749;-92
2023/01/16 02:02:48;;;;;;;26.30;13.48;;;;;;;8.26;59.64;99034.81;4339583;32;20102;-93
2023/01/16 02:05:17;;;;;;;30.77;13.55;;;;;;;8.14;59.63;99033.50;4351159;32;20111;-91
2023/01/16 02:07:43;;;;;;;27.17;13.93;;;;;;;8.32;59.64;99030.31;4351476;32;20115;-91
2023/01/16 02:10:30;;;;;;;31.90;13.70;;;;;;;8.23;59.64;99028.00;4351222;32;20091;-90
2023/01/16 02:12:57;;;;;;;29.12;12.82;;;;;;;8.14;59.63;99027.47;4349187;33;20087;-90
2023/01/16 02:15:22;;;;;;;32.10;14.07;;;;;;;8.12;59.62;99018.91;4337091;32;20088;-91
2023/01/16 02:20:39;;;;;;;27.42;13.38;;;;;;;7.99;59.63;99008.09;4353422;32;20198;-89
2023/01/16 02:23:07;;;;;;;26.05;13.15;;;;;;;8.15;59.63;99004.09;4339202;32;20068;-90
2023/01/16 02:25:42;;;;;;;32.50;14.18;;;;;;;8.12;59.63;98991.25;4363394;32;20107;-91
2023/01/16 02:28:45;;;;;;;30.65;14.48;;;;;;;8.30;59.64;98990.62;4351146;32;20173;-91
2023/01/16 02:31:28;;;;;;;31.92;14.30;;;;;;;8.30;59.63;98982.00;4336186;33;20475;-92
2023/01/16 02:34:12;;;;;;;31.25;13.85;;;;;;;8.42;59.64;98967.75;4341597;32;20079;-92
2023/01/16 02:37:10;;;;;;;30.52;14.10;;;;;;;8.35;59.64;98972.34;4350813;32;20095;-91
2023/01/16 02:39:38;;;;;;;38.45;14.98;;;;;;;8.49;59.64;98961.44;4325583;32;20111;-92
2023/01/16 02:42:16;;;;;;;32.65;14.02;;;;;;;8.29;59.63;98954.38;4357394;32;20091;-91
2023/01/16 02:44:50;;;;;;;38.20;17.40;;;;;;;8.44;59.64;98953.00;4364270;32;20086;-91
2023/01/16 02:47:17;;;;;;;34.60;16.35;;;;;;;8.45;59.65;98950.34;4352768;32;20165;-91
2023/01/16 02:49:50;;;;;;;33.03;15.85;;;;;;;8.37;59.64;98954.13;4352522;32;20185;-91
2023/01/16 02:52:19;;;;;;;44.00;17.35;;;;;;;8.25;59.63;98961.38;4352802;32;20083;-92
2023/01/16 02:55:11;;;;;;;38.08;16.60;;;;;;;8.25;59.64;98952.75;4352499;32;20099;-92
2023/01/16 02:57:43;;;;;;;46.30;17.83;;;;;;;8.16;59.63;98953.94;4350354;32;20154;-91
2023/01/16 03:00:09;;;;;;;43.15;17.87;;;;;;;8.12;59.63;98951.50;4343216;33;20119;-92
2023/01/16 03:02:35;;;;;;;44.05;18.77;;;;;;;8.12;59.63;98938.56;4362104;32;20091;-92
2023/01/16 03:05:00;;;;;;;40.12;17.05;;;;;;;8.04;59.62;98932.78;4347581;32;20190;-92
2023/01/16 03:07:35;;;;;;;37.50;16.90;;;;;;;8.05;59.62;98922.38;4340266;32;20107;-92
2023/01/16 03:10:37;;;;;;;45.15;17.92;;;;;;;7.97;59.62;98919.19;4364382;32;20171;-92
2023/01/16 03:13:04;;;;;;;40.38;18.33;;;;;;;7.98;59.62;98924.31;4359490;32;20121;-92
2023/01/16 03:15:46;;;;;;;40.28;17.80;;;;;;;7.87;59.61;98929.03;4364578;32;20099;-92
2023/01/16 03:18:47;;;;;;;40.28;18.10;;;;;;;7.95;59.62;98908.03;4338818;32;20091;-93
2023/01/16 03:21:22;;;;;;;42.10;18.08;;;;;;;7.91;59.61;98909.03;4364987;32;20464;-90
2023/01/16 03:24:17;;;;;;;38.22;16.77;;;;;;;7.92;59.62;98906.41;4352618;32;20109;-90
2023/01/16 03:26:45;;;;;;;41.63;16.52;;;;;;;7.92;59.62;98909.00;4350953;32;20169;-92
2023/01/16 03:29:14;;;;;;;37.67;17.40;;;;;;;7.87;59.62;98910.06;4340369;32;20158;-91
2023/01/16 03:31:50;;;;;;;42.88;17.80;;;;;;;7.80;59.61;98921.50;4352575;32;20132;-90
2023/01/16 03:34:48;;;;;;;38.88;16.67;;;;;;;7.97;59.62;98903.63;4352702;32;20088;-90
2023/01/16 03:37:25;;;;;;;37.85;16.23;;;;;;;7.93;59.62;98889.94;4341802;32;20086;-89
2023/01/16 03:39:53;;;;;;;44.55;17.45;;;;;;;7.85;59.61;98889.38;4340688;32;20165;-89
2023/01/16 03:42:39;;;;;;;37.33;16.83;;;;;;;8.05;59.62;98888.69;4340026;32;20129;-90
2023/01/16 03:45:09;;;;;;;34.25;15.57;;;;;;;7.86;59.62;98885.88;4325847;33;20096;-92
2023/01/16 03:47:40;;;;;;;37.85;16.90;;;;;;;7.80;59.61;98893.84;4334815;33;20090;-92
2023/01/16 03:50:06;;;;;;;39.75;17.42;;;;;;;7.95;59.62;98871.75;4345124;32;20110;-91
2023/01/16 03:52:35;;;;;;;37.85;17.35;;;;;;;8.06;59.62;98872.25;4350240;32;20125;-91
2023/01/16 03:55:19;;;;;;;38.55;17.12;;;;;;;7.84;59.62;98866.13;4341635;32;20103;-89
2023/01/16 03:57:57;;;;;;;41.78;17.77;;;;;;;7.97;59.61;98859.59;4354937;32;20117;-89
2023/01/16 04:00:23;;;;;;;49.03;22.60;;;;;;;7.83;59.61;98851.47;4338872;32;20158;-89
2023/01/16 04:02:53;;;;;;;52.50;25.15;;;;;;;7.71;59.60;98857.91;4340619;32;20103;-88
2023/01/16 04:05:25;;;;;;;54.08;23.42;;;;;;;7.73;59.61;98857.84;4340696;32;20109;-93
2023/01/16 04:07:55;;;;;;;46.45;22.08;;;;;;;7.73;59.61;98850.94;4353281;32;20123;-90
2023/01/16 04:10:33;;;;;;;;;;;;;;;7.66;59.60;98849.47;4352748;33;20099;-90
2023/01/16 04:13:11;;;;;;;40.97;15.57;;;;;;;7.68;59.60;98839.91;4353122;32;19987;-92
2023/01/16 04:15:38;;;;;;;33.55;16.12;;;;;;;7.80;59.61;98833.41;4352636;32;20109;-91
2023/01/16 04:18:03;;;;;;;37.83;16.02;;;;;;;7.68;59.60;98826.94;4352253;32;20083;-91
2023/01/16 04:20:32;;;;;;;35.85;15.88;;;;;;;7.76;59.61;98829.25;4364628;32;20133;-91
2023/01/16 04:22:57;;;;;;;27.45;13.98;;;;;;;7.72;59.61;98822.50;4364586;32;20141;-91
2023/01/16 04:25:23;;;;;;;37.20;15.45;;;;;;;7.60;59.60;98814.28;4364526;32;20380;-91
2023/01/16 04:27:48;;;;;;;33.70;14.50;;;;;;;7.62;59.61;98812.47;4351857;32;20109;-91
2023/01/16 04:30:15;;;;;;;30.92;15.13;;;;;;;7.76;59.62;98799.00;4342254;32;20142;-91
2023/01/16 04:32:41;;;;;;;31.73;13.50;;;;;;;7.82;59.61;98806.59;4352467;32;20135;-90
2023/01/16 04:35:06;;;;;;;31.50;14.48;;;;;;;7.85;59.62;98803.03;4364449;32;20481;-90
2023/01/16 04:37:33;;;;;;;27.62;12.88;;;;;;;7.79;59.61;98804.09;4350227;32;20103;-90
2023/01/16 04:39:59;;;;;;;29.20;12.90;;;;;;;7.73;59.61;98793.09;4359015;32;21146;-92
2023/01/16 04:42:24;;;;;;;29.17;12.70;;;;;;;7.66;59.60;98797.66;4347910;32;20070;-89
2023/01/16 04:44:50;;;;;;;34.40;13.00;;;;;;;7.70;59.60;98792.31;4364632;32;20165;-90
2023/01/16 04:47:15;;;;;;;29.17;12.95;;;;;;;7.67;59.60;98799.34;4364660;32;20484;-91
2023/01/16 04:49:41;;;;;;;27.75;13.90;;;;;;;7.63;59.61;98790.00;4352245;32;20524;-91
2023/01/16 04:52:06;;;;;;;32.28;15.82;;;;;;;7.54;59.59;98780.78;4351762;32;20099;-90
2023/01/16 04:54:32;;;;;;;26.98;13.45;;;;;;;7.78;59.61;98780.81;4351781;32;20109;-90
2023/01/16 04:57:00;;;;;;;25.83;11.98;;;;;;;7.73;59.61;98773.22;4352188;32;20091;-92
2023/01/16 04:59:26;;;;;;;28.30;14.75;;;;;;;7.78;59.61;98778.22;4363741;32;20119;-91
2023/01/16 05:01:52;;;;;;;24.73;13.48;;;;;;;7.60;59.60;98765.06;4341151;33;20143;-90
2023/01/16 05:04:18;;;;;;;25.23;13.32;;;;;;;7.55;59.60;98774.72;4351640;32;20130;-89
2023/01/16 05:06:43;;;;;;;24.58;13.40;;;;;;;7.64;59.61;98760.63;4363799;32;20139;-91
2023/01/16 05:09:09;;;;;;;26.37;11.98;;;;;;;7.51;59.60;98767.97;4364499;32;20107;-90
2023/01/16 05:11:34;;;;;;;30.15;13.65;;;;;;;7.47;59.59;98762.94;4351908;32;20145;-92
2023/01/16 05:14:00;;;;;;;29.08;12.65;;;;;;;7.43;59.59;98758.78;4364210;32;20082;-91
2023/01/16 05:16:25;;;;;;;30.52;14.80;;;;;;;7.55;59.60;98753.16;4351595;32;20103;-92
2023/01/16 05:18:52;;;;;;;31.85;14.38;;;;;;;7.60;59.60;98757.28;4351710;32;20505;-90
2023/01/16 05:21:17;;;;;;;30.55;13.27;;;;;;;7.62;59.61;98765.84;4351197;32;20115;-90
2023/01/16 05:23:43;;;;;;;28.73;13.23;;;;;;;7.73;59.61;98756.84;4351863;32;20066;-90
2023/01/16 05:26:08;;;;;;;27.15;13.20;;;;;;;7.62;59.61;98758.09;4351865;32;20118;-90
2023/01/16 05:28:34;;;;;;;27.48;12.32;;;;;;;7.49;59.60;98753.38;4349236;33;20103;-90
2023/01/16 05:30:59;;;;;;;26.75;11.80;;;;;;;7.60;59.60;98754.72;4345350;32;20153;-90
2023/01/16 05:33:31;;;;;;;30.08;12.35;;;;;;;7.61;59.59;98750.37;4351505;32;20094;-90
2023/01/16 05:35:56;;;;;;;24.73;11.70;;;;;;;7.68;59.60;98742.31;4342097;33;20672;-90
2023/01/16 05:38:24;;;;;;;31.67;13.13;;;;;;;7.66;59.60;98743.28;4362944;32;20123;-90
2023/01/16 05:40:49;;;;;;;21.37;11.52;;;;;;;7.58;59.59;98750.47;4355008;32;20099;-91
2023/01/16 05:43:15;;;;;;;26.12;11.88;;;;;;;7.47;59.60;98750.84;4351473;32;20474;-90
2023/01/16 05:45:40;;;;;;;27.70;12.25;;;;;;;7.42;59.59;98749.31;4351169;32;20477;-90
2023/01/16 05:48:06;;;;;;;25.62;12.10;;;;;;;7.39;59.58;98752.88;4349514;32;20111;-91
2023/01/16 05:50:31;;;;;;;25.65;12.30;;;;;;;7.29;59.58;98757.50;4346822;32;20150;-90
2023/01/16 05:52:57;;;;;;;23.12;10.45;;;;;;;7.32;59.58;98748.78;4351068;32;20145;-91
2023/01/16 05:55:23;;;;;;;23.58;10.63;;;;;;;7.29;59.58;98751.47;4351459;32;20111;-90
2023/01/16 05:57:48;;;;;;;21.55;10.55;;;;;;;7.29;59.58;98754.06;4363930;32;20111;-89
2023/01/16 06:00:14;;;;;;;23.30;11.25;;;;;;;7.22;59.58;98756.03;4351081;32;20144;-90
2023/01/16 06:02:39;;;;;;;25.17;10.70;;;;;;;7.27;59.58;98761.88;4350801;32;20162;-93
2023/01/16 06:05:05;;;;;;;25.17;11.40;;;;;;;7.52;59.59;98754.12;4350974;32;20116;-90
2023/01/16 06:07:31;;;;;;;28.45;13.35;;;;;;;7.74;59.61;98742.97;4336644;33;20182;-89
2023/01/16 06:09:56;;;;;;;26.20;13.13;;;;;;;7.70;59.60;98743.09;4348428;33;20157;-91
2023/01/16 06:12:22;;;;;;;25.90;12.25;;;;;;;7.63;59.61;98744.22;4362432;32;20143;-90
2023/01/16 06:14:50;;;;;;;29.42;14.02;;;;;;;7.57;59.60;98749.63;4365062;32;20091;-90
2023/01/16 06:17:16;;;;;;;26.87;12.45;;;;;;;7.43;59.59;98749.28;4352628;32;20134;-90
2023/01/16 06:19:45;;;;;;;29.05;13.73;;;;;;;7.41;59.59;98750.22;4359666;32;20150;-90
2023/01/16 06:22:11;;;;;;;29.12;13.90;;;;;;;7.62;59.59;98737.38;4345030;32;20091;-90
2023/01/16 06:24:37;;;;;;;28.15;14.20;;;;;;;7.60;59.59;98738.31;4340387;32;20702;-89
2023/01/16 06:27:02;;;;;;;32.25;13.93;;;;;;;7.54;59.59;98735.94;4364826;32;20182;-88
2023/01/16 06:29:28;;;;;;;34.90;15.48;;;;;;;7.38;59.59;98725.28;4364616;32;20491;-90
2023/01/16 06:31:53;;;;;;;32.40;15.25;;;;;;;7.51;59.60;98715.31;4361991;32;20094;-88
2023/01/16 06:34:19;;;;;;;32.70;15.50;;;;;;;7.43;59.60;98723.38;4365352;32;20137;-90
2023/01/16 06:36:47;;;;;;;28.58;14.27;;;;;;;7.36;59.59;98715.00;4352224;32;20142;-90
2023/01/16 06:39:13;;;;;;;29.95;14.87;;;;;;;7.30;59.58;98707.44;4365327;32;20115;-90
2023/01/16 06:41:38;;;;;;;31.90;16.00;;;;;;;7.22;59.58;98716.38;4365034;32;20158;-90
2023/01/16 06:44:22;;;;;;;30.95;15.20;;;;;;;7.29;59.58;98721.25;4354493;32;20118;-90
2023/01/16 06:46:58;;;;;;;30.00;14.95;;;;;;;7.35;59.59;98720.22;4346301;33;20166;-90
2023/01/16 06:52:48;;;;;;;32.90;16.35;;;;;;;7.39;59.58;98712.28;4327668;33;20060;-90
2023/01/16 06:58:37;;;;;;;37.33;15.38;;;;;;;7.48;59.60;98718.88;4350363;32;20130;-89
2023/01/16 07:01:28;;;;;;;40.08;18.48;;;;;;;7.68;59.60;98716.41;4349100;32;20247;-90
2023/01/16 07:03:56;;;;;;;37.40;20.10;;;;;;;7.55;59.60;98715.16;4360991;32;20164;-89
2023/01/16 07:10:00;;;;;;;40.92;20.45;;;;;;;7.57;59.60;98723.75;4374375;32;20123;-87
2023/01/16 07:12:25;;;;;;;43.95;22.20;;;;;;;7.50;59.60;98731.75;4351610;32;20114;-87
2023/01/16 07:23:13;;;;;;;34.80;16.58;;;;;;;7.64;59.60;98717.44;4366185;32;20121;-88
2023/01/16 07:25:39;;;;;;;36.58;17.30;;;;;;;7.69;59.60;98714.66;4351294;32;20141;-88
2023/01/16 07:28:04;;;;;;;37.83;17.45;;;;;;;7.96;59.61;98718.81;4351811;32;20163;-87
2023/01/16 07:30:30;;;;;;;39.03;17.60;;;;;;;7.87;59.61;98720.91;4364461;32;20124;-88
2023/01/16 07:32:55;;;;;;;37.25;17.60;;;;;;;7.80;59.61;98715.09;4364127;32;20124;-88
2023/01/16 07:35:21;;;;;;;36.40;17.50;;;;;;;8.04;59.62;98708.16;4351814;32;20091;-88
2023/01/16 07:37:46;;;;;;;37.75;17.45;;;;;;;8.21;59.63;98702.31;4364194;32;20384;-88
2023/01/16 07:40:12;;;;;;;36.97;18.48;;;;;;;7.94;59.62;98686.09;4364332;32;20151;-89
2023/01/16 07:42:38;;;;;;;43.45;19.67;;;;;;;8.16;59.63;98681.75;4363936;32;20114;-88
2023/01/16 07:45:04;;;;;;;40.65;19.62;;;;;;;8.06;59.62;98677.84;4351674;32;20574;-88
2023/01/16 07:47:29;;;;;;;40.45;19.67;;;;;;;8.04;59.62;98674.44;4366117;32;20115;-88
2023/01/16 07:49:56;;;;;;;47.62;21.62;;;;;;;8.07;59.63;98658.81;4364845;32;20384;-88
2023/01/16 07:52:21;;;;;;;41.35;18.80;;;;;;;7.90;59.61;98664.63;4364494;32;20114;-88
2023/01/16 07:54:47;;;;;;;49.78;20.55;;;;;;;7.91;59.61;98662.91;4363898;32;20401;-88
2023/01/16 07:57:12;;;;;;;45.08;20.40;;;;;;;7.93;59.62;98658.50;4377825;32;20109;-88
2023/01/16 07:59:38;;;;;;;39.38;19.33;;;;;;;8.06;59.62;98646.75;4363753;32;20114;-88
2023/01/16 08:02:03;;;;;;;49.40;21.40;;;;;;;7.96;59.62;98645.41;4364052;32;20142;-88
2023/01/16 08:04:29;;;;;;;45.08;22.02;;;;;;;7.93;59.62;98633.44;4363932;32;20102;-87
2023/01/16 08:06:55;;;;;;;51.60;21.92;;;;;;;7.91;59.62;98627.47;4363911;32;20464;-88
2023/01/16 08:09:20;;;;;;;60.88;22.58;;;;;;;8.05;59.62;98619.16;4372281;32;20166;-88
2023/01/16 08:11:48;;;;;;;49.95;22.90;;;;;;;8.18;59.63;98609.97;4376495;32;20199;-88
2023/01/16 08:14:14;;;;;;;46.97;21.12;;;;;;;8.22;59.63;98602.91;4376906;32;20212;-88
2023/01/16 08:16:40;;;;;;;47.10;21.08;;;;;;;8.27;59.63;98607.00;4377250;32;20433;-88
2023/01/16 08:19:05;;;;;;;52.20;21.55;;;;;;;8.27;59.64;98606.16;4377401;32;20507;-88
2023/01/16 08:21:30;;;;;;;46.00;20.33;;;;;;;8.36;59.64;98594.59;4364138;32;20146;-88
2023/01/16 08:23:56;;;;;;;50.05;20.98;;;;;;;8.51;59.66;98591.34;4376443;32;20128;-88
2023/01/16 08:26:21;;;;;;;47.92;22.20;;;;;;;8.63;59.66;98590.84;4364098;32;20079;-88
2023/01/16 08:28:48;;;;;;;51.63;23.02;;;;;;;8.59;59.66;98592.75;4376296;32;20107;-88
2023/01/16 08:31:13;;;;;;;44.10;21.48;;;;;;;8.53;59.66;98586.97;4376148;32;20102;-88
2023/01/16 08:33:40;;;;;;;46.45;20.83;;;;;;;8.57;59.65;98584.19;4376271;32;20156;-89
2023/01/16 08:36:07;;;;;;;40.70;18.20;;;;;;;8.80;59.66;98567.63;4363782;32;20210;-88
2023/01/16 08:38:32;;;;;;;29.35;13.62;;;;;;;8.73;59.66;98561.00;4364035;32;20099;-87
2023/01/16 08:40:58;;;;;;;28.48;13.30;;;;;;;8.93;59.67;98558.38;4363443;32;20145;-88
2023/01/16 08:51:52;;;;;;;37.35;16.23;;;;;;;8.13;59.63;98539.34;4376408;32;20160;-87
2023/01/16 08:54:17;;;;;;;30.62;13.80;;;;;;;8.11;59.63;98525.59;4363464;32;20095;-87
2023/01/16 08:56:43;;;;;;;30.85;14.02;;;;;;;8.03;59.62;98522.47;4363637;32;20118;-87
2023/01/16 08:59:10;;;;;;;35.97;15.73;;;;;;;7.95;59.62;98509.00;4377066;32;20103;-88
2023/01/16 09:01:36;;;;;;;34.83;14.77;;;;;;;8.01;59.62;98513.91;4376252;32;20122;-87
2023/01/16 09:04:01;;;;;;;33.55;16.00;;;;;;;8.00;59.62;98513.06;4376000;32;20205;-87
2023/01/16 09:06:27;;;;;;;35.40;15.50;;;;;;;8.09;59.63;98504.09;4376011;32;20407;-88
2023/01/16 09:08:52;;;;;;;30.80;14.13;;;;;;;8.02;59.63;98497.47;4363114;32;20103;-88
2023/01/16 09:14:02;;;;;;;33.78;13.77;;;;;;;7.99;59.62;98482.88;4376136;32;20112;-89
2023/01/16 09:16:27;;;;;;;31.00;14.38;;;;;;;8.01;59.63;98477.63;4363764;32;20150;-89
2023/01/16 09:18:53;;;;;;;31.30;13.70;;;;;;;8.00;59.63;98471.59;4375995;32;20115;-87
2023/01/16 09:21:19;;;;;;;31.05;13.60;;;;;;;7.91;59.61;98466.81;4376132;32;20138;-88
2023/01/16 09:23:45;;;;;;;31.83;13.65;;;;;;;7.90;59.61;98459.13;4375825;32;20118;-88
2023/01/16 09:26:10;;;;;;;34.45;15.80;;;;;;;7.83;59.61;98453.34;4375902;32;20141;-88
2023/01/16 09:28:36;;;;;;;33.90;15.50;;;;;;;7.79;59.61;98450.94;4363152;32;20143;-88
2023/01/16 09:31:01;;;;;;;31.98;14.63;;;;;;;7.92;59.62;98439.16;4363499;32;20099;-88
2023/01/16 09:33:27;;;;;;;35.20;14.95;;;;;;;7.86;59.62;98440.28;4375825;32;20090;-89
2023/01/16 09:35:53;;;;;;;35.30;15.70;;;;;;;7.81;59.61;98424.09;4376067;32;20385;-88
2023/01/16 09:38:18;;;;;;;38.70;16.12;;;;;;;7.85;59.62;98420.47;4377396;32;20121;-88
2023/01/16 09:40:49;;;;;;;29.87;15.27;;;;;;;7.86;59.62;98414.38;4376349;32;20134;-88
2023/01/16 09:43:35;;;;;;;39.92;15.93;;;;;;;7.94;59.62;98407.09;4363856;32;20144;-88
2023/01/16 09:46:16;;;;;;;37.35;15.68;;;;;;;8.07;59.63;98404.84;4376765;32;20121;-88
2023/01/16 09:48:51;;;;;;;38.47;15.02;;;;;;;8.03;59.62;98387.72;4363678;32;20225;-88
2023/01/16 09:51:20;;;;;;;34.35;14.87;;;;;;;7.99;59.63;98392.19;4376800;32;20102;-88
2023/01/16 09:59:40;;;;;;;39.03;17.92;;;;;;;7.82;59.61;98375.72;4365296;32;20153;-88
2023/01/16 10:02:17;;;;;;;36.28;17.23;;;;;;;7.97;59.61;98367.25;4363228;32;20619;-88
2023/01/16 10:04:43;;;;;;;39.30;17.83;;;;;;;7.94;59.62;98359.63;4375349;32;20103;-88
2023/01/16 10:07:24;;;;;;;39.83;18.00;;;;;;;7.98;59.62;98354.22;4387681;32;20163;-88
2023/01/16 10:09:58;;;;;;;40.25;17.20;;;;;;;8.02;59.62;98345.41;4376523;32;20173;-88
2023/01/16 10:12:29;;;;;;;36.05;15.88;;;;;;;8.07;59.63;98342.62;4376808;32;20456;-88
2023/01/16 10:15:19;;;;;;;40.90;17.83;;;;;;;7.88;59.62;98341.75;4350732;32;20172;-89
2023/01/16 10:18:06;;;;;;;41.80;16.92;;;;;;;7.86;59.62;98328.03;4376684;32;20404;-88
2023/01/16 10:21:07;;;;;;;39.45;16.87;;;;;;;7.98;59.62;98317.97;4351015;32;20110;-88
2023/01/16 10:23:51;;;;;;;36.72;16.45;;;;;;;8.06;59.62;98316.78;4362563;32;20124;-89
2023/01/16 10:26:29;;;;;;;42.58;17.60;;;;;;;7.99;59.63;98306.69;4363802;32;20536;-88
2023/01/16 10:29:01;;;;;;;33.63;15.35;;;;;;;7.87;59.62;98303.81;4354089;32;20083;-89
2023/01/16 10:31:33;;;;;;;33.33;15.27;;;;;;;7.84;59.60;98296.19;4350499;32;20132;-88
2023/01/16 10:34:15;;;;;;;35.85;16.45;;;;;;;7.74;59.61;98302.66;4350765;32;20733;-88
2023/01/16 10:36:43;;;;;;;40.42;17.75;;;;;;;7.96;59.62;98293.03;4338915;32;20152;-88
2023/01/16 10:39:09;;;;;;;38.03;16.95;;;;;;;7.88;59.62;98274.41;4356247;32;20095;-89
2023/01/16 10:50:16;;;;;;;42.15;16.52;;;;;;;7.96;59.62;98259.34;4354138;32;20512;-88
2023/01/16 10:52:41;;;;;;;37.03;16.62;;;;;;;8.05;59.62;98247.75;4349871;32;20458;-88
2023/01/16 10:55:07;;;;;;;40.95;17.98;;;;;;;7.80;59.61;98242.78;4349971;32;20150;-89
2023/01/16 10:57:32;;;;;;;36.20;16.70;;;;;;;7.88;59.62;98232.97;4361980;32;20444;-89
2023/01/16 11:00:07;;;;;;;40.28;19.98;;;;;;;7.89;59.62;98234.63;4362981;32;20141;-89
2023/01/16 11:02:34;;;;;;;41.05;18.15;;;;;;;7.84;59.62;98221.91;4345283;32;20110;-88
2023/01/16 11:05:01;;;;;;;37.47;17.85;;;;;;;7.82;59.61;98221.12;4367532;32;20098;-88
2023/01/16 11:07:28;;;;;;;39.22;17.52;;;;;;;7.91;59.61;98212.09;4352294;32;20515;-89
2023/01/16 11:09:53;;;;;;;38.20;18.12;;;;;;;7.88;59.61;98199.28;4370222;32;20494;-89
2023/01/16 11:18:30;;;;;;;40.97;18.27;;;;;;;8.08;59.63;98178.47;4366450;32;20121;-88
2023/01/16 11:20:58;;;;;;;40.08;17.27;;;;;;;7.98;59.62;98179.78;4378135;32;20419;-88
2023/01/16 11:23:25;;;;;;;38.17;17.48;;;;;;;7.86;59.62;98182.97;4363762;32;20128;-88
2023/01/16 11:25:52;;;;;;;39.50;17.95;;;;;;;7.95;59.62;98161.81;4378282;32;20105;-88
2023/01/16 11:28:29;;;;;;;46.37;20.15;;;;;;;8.02;59.62;98158.84;4374266;32;20129;-88
2023/01/16 11:30:58;;;;;;;45.92;20.92;;;;;;;7.99;59.62;98156.41;4358824;32;20134;-88
2023/01/16 11:33:34;;;;;;;40.85;18.08;;;;;;;8.12;59.62;98151.50;4364276;32;20114;-88
2023/01/16 11:36:01;;;;;;;38.17;15.05;;;;;;;8.06;59.62;98141.44;4376727;32;20111;-88
2023/01/16 11:38:27;;;;;;;39.85;16.05;;;;;;;8.04;59.62;98143.22;4358488;32;20095;-88
2023/01/16 11:40:55;;;;;;;36.72;16.27;;;;;;;7.81;59.61;98131.38;4384844;32;20574;-89
2023/01/16 11:46:27;;;;;;;36.22;15.68;;;;;;;7.85;59.61;98119.13;4366326;32;20129;-88
2023/01/16 11:48:54;;;;;;;43.55;17.67;;;;;;;7.72;59.61;98111.06;4377827;32;20083;-88
2023/01/16 11:51:23;;;;;;;35.00;15.07;;;;;;;7.78;59.61;98115.94;4364166;32;20083;-88
2023/01/16 11:53:48;;;;;;;34.17;15.55;;;;;;;7.87;59.62;98101.75;4364290;32;20110;-88
2023/01/16 11:56:33;;;;;;;34.22;16.10;;;;;;;7.72;59.61;98098.13;4376242;32;20432;-88
2023/01/16 11:59:07;;;;;;;40.05;16.23;;;;;;;7.60;59.60;98098.69;4376312;32;20086;-88
2023/01/16 12:04:33;;;;;;;40.20;18.15;;;;;;;7.96;59.62;98075.41;4376914;32;20226;-88
2023/01/16 12:07:19;;;;;;;35.67;15.50;;;;;;;7.74;59.60;98067.81;4353887;32;20421;-90
2023/01/16 12:09:55;;;;;;;36.42;15.88;;;;;;;7.61;59.61;98054.59;4365404;32;20109;-88
2023/01/16 12:15:23;;;;;;;39.47;17.50;;;;;;;7.69;59.60;98046.47;4366635;32;20116;-88
2023/01/16 12:18:17;;;;;;;38.58;16.77;;;;;;;7.61;59.60;98033.06;4376584;32;20567;-89
2023/01/16 12:20:49;;;;;;;38.03;16.02;;;;;;;7.62;59.61;98025.22;4380614;32;20087;-89
2023/01/16 12:23:47;;;;;;;40.33;17.95;;;;;;;7.48;59.60;98021.59;4364983;32;20204;-88
2023/01/16 12:26:19;;;;;;;41.28;17.92;;;;;;;7.47;59.58;98019.91;4374451;32;20118;-88
2023/01/16 12:29:02;;;;;;;46.70;19.27;;;;;;;7.28;59.58;98014.75;4364186;32;20107;-87
2023/01/16 12:31:41;;;;;;;43.13;17.12;;;;;;;7.48;59.59;98006.91;4377457;32;20090;-87
2023/01/16 12:34:25;;;;;;;40.83;16.73;;;;;;;7.44;59.59;98005.38;4376330;32;20112;-88
2023/01/16 12:37:12;;;;;;;46.53;18.75;;;;;;;7.43;59.59;98006.28;4376136;32;20428;-87
2023/01/16 12:39:53;;;;;;;46.90;17.98;;;;;;;7.41;59.59;97989.16;4377406;32;20132;-87
2023/01/16 12:45:59;;;;;;;45.12;18.92;;;;;;;7.46;59.59;97987.16;4371170;32;20152;-88
2023/01/16 12:48:42;;;;;;;45.00;17.73;;;;;;;7.41;59.59;97987.41;4374213;32;20731;-87